Observation data for Jayton on 07/18/2019      Previous  Date  Next       Current Mesonet Observations  Soil Data  Daily Summary Page  Observations in Plain Language
KJTS 180500Z 15009KT 29/17 A2994 RMK A01 T02900170  RH  051%=      5-min Rain = 0
KJTS 180505Z 15009KT 29/17 A2994 RMK A01 T02880171  RH  052%=      5-min Rain = 0
KJTS 180510Z 15009KT 29/17 A2994 RMK A01 T02870171  RH  052%=      5-min Rain = 0
KJTS 180515Z 15010KT 29/17 A2994 RMK A01 T02860171  RH  052%=      5-min Rain = 0
KJTS 180520Z 15009KT 28/17 A2994 RMK A01 T02840171  RH  053%=      5-min Rain = 0
KJTS 180525Z 15010KT 28/17 A2993 RMK A01 T02830171  RH  053%=      5-min Rain = 0
KJTS 180530Z 15010KT 28/17 A2993 RMK A01 T02830171  RH  053%=      5-min Rain = 0
KJTS 180535Z 15008G13KT 28/17 A2993 RMK A01 T02810171  RH  054%=      5-min Rain = 0
KJTS 180540Z 15009KT 28/17 A2994 RMK A01 T02800171  RH  054%=      5-min Rain = 0
KJTS 180545Z 15010KT 28/17 A2994 RMK A01 T02800171  RH  054%=      5-min Rain = 0
KJTS 180550Z 15009KT 28/17 A2994 RMK A01 T02790171  RH  054%=      5-min Rain = 0
KJTS 180555Z 16009KT 28/17 A2994 RMK A01 T02790171  RH  055%=      5-min Rain = 0
KJTS 180600Z 16009KT 28/17 A2994 RMK A01 T02780172  RH  055%=      5-min Rain = 0
KJTS 180605Z 16009KT 28/17 A2994 RMK A01 T02770172  RH  056%=      5-min Rain = 0
KJTS 180610Z 15009KT 28/17 A2994 RMK A01 T02760172  RH  056%=      5-min Rain = 0
KJTS 180615Z 16009KT 28/17 A2994 RMK A01 T02750172  RH  056%=      5-min Rain = 0
KJTS 180620Z 16009KT 27/17 A2994 RMK A01 T02740173  RH  057%=      5-min Rain = 0
KJTS 180625Z 15009KT 27/17 A2994 RMK A01 T02730173  RH  057%=      5-min Rain = 0
KJTS 180630Z 16010KT 27/17 A2994 RMK A01 T02720174  RH  058%=      5-min Rain = 0
KJTS 180635Z 16010KT 27/18 A2994 RMK A01 T02720175  RH  058%=      5-min Rain = 0
KJTS 180640Z 16009KT 27/18 A2994 RMK A01 T02700175  RH  059%=      5-min Rain = 0
KJTS 180645Z 15009KT 27/18 A2994 RMK A01 T02690176  RH  060%=      5-min Rain = 0
KJTS 180650Z 15009KT 27/18 A2994 RMK A01 T02680176  RH  060%=      5-min Rain = 0
KJTS 180655Z 15009KT 27/18 A2994 RMK A01 T02680176  RH  060%=      5-min Rain = 0
KJTS 180700Z 15009KT 27/18 A2994 RMK A01 T02670177  RH  061%=      5-min Rain = 0
KJTS 180705Z 16008KT 27/18 A2994 RMK A01 T02670177  RH  061%=      5-min Rain = 0
KJTS 180710Z 16009KT 27/18 A2994 RMK A01 T02670178  RH  061%=      5-min Rain = 0
KJTS 180715Z 16008KT 27/18 A2994 RMK A01 T02660179  RH  062%=      5-min Rain = 0
KJTS 180720Z 16008KT 27/18 A2994 RMK A01 T02650179  RH  062%=      5-min Rain = 0
KJTS 180725Z 16008KT 27/18 A2994 RMK A01 T02650180  RH  063%=      5-min Rain = 0
KJTS 180730Z 16008KT 27/18 A2994 RMK A01 T02650181  RH  063%=      5-min Rain = 0
KJTS 180735Z 16008KT 27/18 A2994 RMK A01 T02650181  RH  063%=      5-min Rain = 0
KJTS 180740Z 16009KT 27/18 A2993 RMK A01 T02650181  RH  063%=      5-min Rain = 0
KJTS 180745Z 16008KT 26/18 A2993 RMK A01 T02640182  RH  064%=      5-min Rain = 0
KJTS 180750Z 16009KT 26/18 A2993 RMK A01 T02640182  RH  064%=      5-min Rain = 0
KJTS 180755Z 16008KT 26/18 A2993 RMK A01 T02640183  RH  064%=      5-min Rain = 0
KJTS 180800Z 16008KT 26/18 A2993 RMK A01 T02640183  RH  064%=      5-min Rain = 0
KJTS 180805Z 16009KT 27/18 A2993 RMK A01 T02650183  RH  064%=      5-min Rain = 0
KJTS 180810Z 16010KT 27/18 A2993 RMK A01 T02650183  RH  064%=      5-min Rain = 0
KJTS 180815Z 16008KT 27/18 A2993 RMK A01 T02650184  RH  065%=      5-min Rain = 0
KJTS 180820Z 16009KT 27/18 A2993 RMK A01 T02650184  RH  065%=      5-min Rain = 0
KJTS 180825Z 16009G15KT 27/18 A2994 RMK A01 T02650184  RH  065%=      5-min Rain = 0
KJTS 180830Z 16010KT 27/19 A2993 RMK A01 T02650185  RH  065%=      5-min Rain = 0
KJTS 180835Z 16008KT 27/19 A2993 RMK A01 T02650185  RH  065%=      5-min Rain = 0
KJTS 180840Z 17007KT 26/19 A2994 RMK A01 T02630185  RH  066%=      5-min Rain = 0
KJTS 180845Z 17007KT 26/19 A2994 RMK A01 T02620185  RH  066%=      5-min Rain = 0
KJTS 180850Z 17007KT 26/19 A2994 RMK A01 T02620185  RH  066%=      5-min Rain = 0
KJTS 180855Z 17005KT 26/19 A2994 RMK A01 T02600186  RH  067%=      5-min Rain = 0
KJTS 180900Z 18006KT 26/19 A2995 RMK A01 T02590185  RH  068%=      5-min Rain = 0
KJTS 180905Z 17007KT 26/19 A2994 RMK A01 T02580185  RH  068%=      5-min Rain = 0
KJTS 180910Z 17006KT 26/19 A2994 RMK A01 T02580186  RH  068%=      5-min Rain = 0
KJTS 180915Z 18006KT 26/19 A2995 RMK A01 T02580186  RH  068%=      5-min Rain = 0
KJTS 180920Z 17007KT 26/19 A2994 RMK A01 T02590186  RH  068%=      5-min Rain = 0
KJTS 180925Z 17007G12KT 26/19 A2995 RMK A01 T02580186  RH  068%=      5-min Rain = 0
KJTS 180930Z 17008KT 26/19 A2995 RMK A01 T02590187  RH  068%=      5-min Rain = 0
KJTS 180935Z 17008KT 26/19 A2995 RMK A01 T02600187  RH  068%=      5-min Rain = 0
KJTS 180940Z 17008KT 26/19 A2994 RMK A01 T02600188  RH  068%=      5-min Rain = 0
KJTS 180945Z 17009KT 26/19 A2995 RMK A01 T02600189  RH  069%=      5-min Rain = 0
KJTS 180950Z 17008KT 26/19 A2995 RMK A01 T02610190  RH  069%=      5-min Rain = 0
KJTS 180955Z 17007KT 26/19 A2995 RMK A01 T02600191  RH  069%=      5-min Rain = 0
KJTS 181000Z 18007KT 26/19 A2996 RMK A01 T02590191  RH  070%=      5-min Rain = 0
KJTS 181005Z 18007G12KT 26/19 A2996 RMK A01 T02580192  RH  071%=      5-min Rain = 0
KJTS 181010Z 18007KT 26/19 A2996 RMK A01 T02590192  RH  071%=      5-min Rain = 0
KJTS 181015Z 17007KT 26/19 A2996 RMK A01 T02580193  RH  071%=      5-min Rain = 0
KJTS 181020Z 18006KT 26/19 A2997 RMK A01 T02570193  RH  072%=      5-min Rain = 0
KJTS 181025Z 18006KT 26/19 A2997 RMK A01 T02550194  RH  073%=      5-min Rain = 0
KJTS 181030Z 18006KT 25/19 A2997 RMK A01 T02540194  RH  073%=      5-min Rain = 0
KJTS 181035Z 17006KT 25/19 A2996 RMK A01 T02520194  RH  074%=      5-min Rain = 0
KJTS 181040Z 18007KT 25/19 A2997 RMK A01 T02520194  RH  075%=      5-min Rain = 0
KJTS 181045Z 17007KT 25/19 A2996 RMK A01 T02500194  RH  075%=      5-min Rain = 0
KJTS 181050Z 18007KT 25/20 A2996 RMK A01 T02500195  RH  075%=      5-min Rain = 0
KJTS 181055Z 18008KT 25/20 A2996 RMK A01 T02500195  RH  076%=      5-min Rain = 0
KJTS 181100Z 17008KT 25/20 A2996 RMK A01 T02500195  RH  076%=      5-min Rain = 0
KJTS 181105Z 18007KT 25/20 A2996 RMK A01 T02500195  RH  076%=      5-min Rain = 0
KJTS 181110Z 18007KT 25/20 A2996 RMK A01 T02500196  RH  076%=      5-min Rain = 0
KJTS 181115Z 18007KT 25/20 A2996 RMK A01 T02490196  RH  077%=      5-min Rain = 0
KJTS 181120Z 18007KT 25/20 A2997 RMK A01 T02480196  RH  077%=      5-min Rain = 0
KJTS 181125Z 17006KT 25/20 A2996 RMK A01 T02460196  RH  078%=      5-min Rain = 0
KJTS 181130Z 17007KT 25/20 A2996 RMK A01 T02460196  RH  078%=      5-min Rain = 0
KJTS 181135Z 18007KT 25/20 A2996 RMK A01 T02460197  RH  078%=      5-min Rain = 0
KJTS 181140Z 18007KT 25/20 A2996 RMK A01 T02460197  RH  079%=      5-min Rain = 0
KJTS 181145Z 17007KT 25/20 A2996 RMK A01 T02450197  RH  079%=      5-min Rain = 0
KJTS 181200Z 18008KT 25/20 A2996 RMK A01 T02470198  RH  079%=      5-min Rain = 0
KJTS 181205Z 18009KT 25/20 A2996 RMK A01 T02480198  RH  078%=      5-min Rain = 0
KJTS 181210Z 18009KT 25/20 A2996 RMK A01 T02500199  RH  077%=      5-min Rain = 0
KJTS 181215Z 19008KT 25/20 A2997 RMK A01 T02520199  RH  077%=      5-min Rain = 0
KJTS 181220Z 18008KT 25/20 A2997 RMK A01 T02530200  RH  077%=      5-min Rain = 0
KJTS 181225Z 18010KT 25/20 A2996 RMK A01 T02540200  RH  076%=      5-min Rain = 0
KJTS 181230Z 18009KT 26/20 A2996 RMK A01 T02550200  RH  076%=      5-min Rain = 0
KJTS 181235Z 19009KT 26/20 A2997 RMK A01 T02560200  RH  075%=      5-min Rain = 0
KJTS 181240Z 19009KT 26/20 A2997 RMK A01 T02580201  RH  075%=      5-min Rain = 0
KJTS 181245Z 19009G15KT 26/20 A2997 RMK A01 T02590201  RH  075%=      5-min Rain = 0
KJTS 181250Z 19008KT 26/20 A2997 RMK A01 T02610202  RH  074%=      5-min Rain = 0
KJTS 181255Z 19010G15KT 26/20 A2997 RMK A01 T02620202  RH  074%=      5-min Rain = 0
KJTS 181300Z 19010KT 26/20 A2997 RMK A01 T02630202  RH  073%=      5-min Rain = 0
KJTS 181305Z 19010KT 26/20 A2997 RMK A01 T02640202  RH  073%=      5-min Rain = 0
KJTS 181310Z 19009G14KT 27/20 A2997 RMK A01 T02660203  RH  072%=      5-min Rain = 0
KJTS 181315Z 19010G15KT 27/20 A2997 RMK A01 T02670203  RH  072%=      5-min Rain = 0
KJTS 181320Z 19011KT 27/20 A2997 RMK A01 T02690203  RH  071%=      5-min Rain = 0
KJTS 181325Z 19013G18KT 27/20 A2997 RMK A01 T02700202  RH  071%=      5-min Rain = 0
KJTS 181330Z 19011G16KT 27/20 A2997 RMK A01 T02710203  RH  070%=      5-min Rain = 0
KJTS 181335Z 19012G17KT 27/20 A2997 RMK A01 T02730202  RH  069%=      5-min Rain = 0
KJTS 181340Z 19011G16KT 28/20 A2997 RMK A01 T02750203  RH  069%=      5-min Rain = 0
KJTS 181345Z 19014G21KT 28/20 A2997 RMK A01 T02760202  RH  068%=      5-min Rain = 0
KJTS 181350Z 19015G20KT 28/20 A2997 RMK A01 T02750201  RH  068%=      5-min Rain = 0
KJTS 181355Z 19015G22KT 28/20 A2997 RMK A01 T02760201  RH  067%=      5-min Rain = 0
KJTS 181400Z 19013G19KT 28/20 A2996 RMK A01 T02790202  RH  067%=      5-min Rain = 0
KJTS 181405Z 20014KT 28/20 A2997 RMK A01 T02810202  RH  066%=      5-min Rain = 0
KJTS 181410Z 20013G19KT 28/20 A2997 RMK A01 T02830202  RH  065%=      5-min Rain = 0
KJTS 181415Z 19014G20KT 28/20 A2996 RMK A01 T02840202  RH  065%=      5-min Rain = 0
KJTS 181420Z 19016G21KT 28/20 A2996 RMK A01 T02830200  RH  065%=      5-min Rain = 0
KJTS 181425Z 19014G19KT 28/20 A2997 RMK A01 T02830201  RH  065%=      5-min Rain = 0
KJTS 181430Z 19013G20KT 29/20 A2996 RMK A01 T02870201  RH  064%=      5-min Rain = 0
KJTS 181435Z 19015G21KT 29/20 A2997 RMK A01 T02890201  RH  062%=      5-min Rain = 0
KJTS 181440Z 20015G21KT 29/20 A2996 RMK A01 T02870199  RH  062%=      5-min Rain = 0
KJTS 181445Z 20015G20KT 29/20 A2996 RMK A01 T02900200  RH  062%=      5-min Rain = 0
KJTS 181450Z 19015G21KT 29/20 A2996 RMK A01 T02920200  RH  061%=      5-min Rain = 0
KJTS 181455Z 19015G22KT 29/20 A2996 RMK A01 T02930199  RH  061%=      5-min Rain = 0
KJTS 181500Z 18014KT 30/20 A2996 RMK A01 T02960201  RH  060%=      5-min Rain = 0
KJTS 181505Z 19016G22KT 30/20 A2996 RMK A01 T02970200  RH  059%=      5-min Rain = 0
KJTS 181510Z 19012G20KT 30/20 A2996 RMK A01 T02990201  RH  059%=      5-min Rain = 0
KJTS 181515Z 19014G21KT 30/20 A2996 RMK A01 T03010201  RH  058%=      5-min Rain = 0
KJTS 181520Z 20013G20KT 30/20 A2996 RMK A01 T03010201  RH  058%=      5-min Rain = 0
KJTS 181525Z 21014G20KT 30/20 A2996 RMK A01 T03020199  RH  057%=      5-min Rain = 0
KJTS 181530Z 19014G19KT 30/20 A2996 RMK A01 T03030200  RH  057%=      5-min Rain = 0
KJTS 181535Z 21012G18KT 31/20 A2996 RMK A01 T03070202  RH  057%=      5-min Rain = 0
KJTS 181540Z 20013G18KT 31/20 A2996 RMK A01 T03070201  RH  056%=      5-min Rain = 0
KJTS 181545Z 19014G19KT 31/20 A2995 RMK A01 T03080202  RH  056%=      5-min Rain = 0
KJTS 181550Z 19013G19KT 31/20 A2995 RMK A01 T03090201  RH  056%=      5-min Rain = 0
KJTS 181555Z 18016KT 31/20 A2995 RMK A01 T03070201  RH  056%=      5-min Rain = 0
KJTS 181600Z 19015G22KT 31/20 A2995 RMK A01 T03090202  RH  056%=      5-min Rain = 0
KJTS 181605Z 19013G19KT 31/20 A2995 RMK A01 T03140203  RH  055%=      5-min Rain = 0
KJTS 181610Z 19015G22KT 31/20 A2995 RMK A01 T03140201  RH  054%=      5-min Rain = 0
KJTS 181615Z 19012G17KT 32/20 A2995 RMK A01 T03150200  RH  053%=      5-min Rain = 0
KJTS 181620Z 21014G20KT 32/20 A2995 RMK A01 T03180200  RH  053%=      5-min Rain = 0
KJTS 181625Z 20014KT 32/20 A2995 RMK A01 T03190200  RH  052%=      5-min Rain = 0
KJTS 181630Z 18013KT 32/20 A2995 RMK A01 T03190201  RH  053%=      5-min Rain = 0
KJTS 181635Z 21015G21KT 32/20 A2995 RMK A01 T03220197  RH  051%=      5-min Rain = 0
KJTS 181640Z 20013G18KT 32/20 A2994 RMK A01 T03240199  RH  051%=      5-min Rain = 0
KJTS 181645Z 19014G20KT 33/20 A2994 RMK A01 T03280200  RH  050%=      5-min Rain = 0
KJTS 181650Z 19015G22KT 33/20 A2994 RMK A01 T03270197  RH  049%=      5-min Rain = 0
KJTS 181655Z 19012G18KT 33/20 A2994 RMK A01 T03290198  RH  049%=      5-min Rain = 0
KJTS 181700Z 17012G17KT 33/20 A2994 RMK A01 T03310199  RH  049%=      5-min Rain = 0
KJTS 181705Z 19013G18KT 33/20 A2994 RMK A01 T03320198  RH  048%=      5-min Rain = 0
KJTS 181710Z 21012KT 33/20 A2994 RMK A01 T03340195  RH  047%=      5-min Rain = 0
KJTS 181715Z 20013G20KT 34/20 A2994 RMK A01 T03360196  RH  046%=      5-min Rain = 0
KJTS 181720Z 19013G19KT 34/20 A2994 RMK A01 T03360197  RH  046%=      5-min Rain = 0
KJTS 181725Z 20011G16KT 34/19 A2993 RMK A01 T03430194  RH  044%=      5-min Rain = 0
KJTS 181730Z 19011G19KT 34/19 A2993 RMK A01 T03420194  RH  044%=      5-min Rain = 0
KJTS 181735Z 20012G17KT 34/19 A2993 RMK A01 T03410194  RH  044%=      5-min Rain = 0
KJTS 181740Z 19012G20KT 34/20 A2993 RMK A01 T03440196  RH  044%=      5-min Rain = 0
KJTS 181745Z 19011G17KT 34/20 A2993 RMK A01 T03440195  RH  044%=      5-min Rain = 0
KJTS 181750Z 19015KT 35/19 A2993 RMK A01 T03470191  RH  042%=      5-min Rain = 0
KJTS 181755Z 19011G17KT 35/19 A2993 RMK A01 T03470194  RH  043%=      5-min Rain = 0
KJTS 181800Z 19013G19KT 35/19 A2992 RMK A01 T03480194  RH  043%=      5-min Rain = 0
KJTS 181805Z 18013G19KT 35/19 A2992 RMK A01 T03500192  RH  042%=      5-min Rain = 0
KJTS 181810Z 18012G18KT 35/19 A2992 RMK A01 T03530192  RH  041%=      5-min Rain = 0
KJTS 181815Z 17012G18KT 35/19 A2992 RMK A01 T03530193  RH  041%=      5-min Rain = 0
KJTS 181820Z 19013G19KT 35/19 A2992 RMK A01 T03530192  RH  041%=      5-min Rain = 0
KJTS 181825Z 18010G18KT 35/19 A2991 RMK A01 T03540194  RH  041%=      5-min Rain = 0
KJTS 181830Z 17012G18KT 36/19 A2991 RMK A01 T03560193  RH  041%=      5-min Rain = 0
KJTS 181835Z 20013KT 36/19 A2991 RMK A01 T03580191  RH  040%=      5-min Rain = 0
KJTS 181840Z 19014G19KT 36/19 A2991 RMK A01 T03580191  RH  040%=      5-min Rain = 0
KJTS 181845Z 19012KT 36/19 A299 RMK A01 T03590190  RH  039%=      5-min Rain = 0
KJTS 181850Z 17014KT 36/19 A299 RMK A01 T03600191  RH  039%=      5-min Rain = 0
KJTS 181855Z 18014G21KT 36/19 A299 RMK A01 T03620191  RH  039%=      5-min Rain = 0
KJTS 181900Z 20014G19KT 36/19 A2991 RMK A01 T03600188  RH  039%=      5-min Rain = 0
KJTS 181905Z 18015G23KT 36/19 A299 RMK A01 T03610186  RH  038%=      5-min Rain = 0
KJTS 181910Z 19013G20KT 36/19 A299 RMK A01 T03620187  RH  038%=      5-min Rain = 0
KJTS 181915Z 18013G20KT 37/19 A299 RMK A01 T03680190  RH  037%=      5-min Rain = 0
KJTS 181920Z 18011G18KT 37/19 A299 RMK A01 T03670186  RH  037%=      5-min Rain = 0
KJTS 181925Z 19012G19KT 37/18 A299 RMK A01 T03670183  RH  036%=      5-min Rain = 0
KJTS 181930Z 20013G18KT 37/18 A299 RMK A01 T03710184  RH  035%=      5-min Rain = 0
KJTS 181935Z 20013G18KT 37/18 A299 RMK A01 T03700179  RH  034%=      5-min Rain = 0
KJTS 181940Z 20012G19KT 37/18 A2989 RMK A01 T03690179  RH  035%=      5-min Rain = 0
KJTS 181945Z 18010G15KT 37/18 A2989 RMK A01 T03720176  RH  033%=      5-min Rain = 0
KJTS 181950Z 16013G19KT 37/19 A2989 RMK A01 T03720186  RH  036%=      5-min Rain = 0
KJTS 181955Z 19014G21KT 37/18 A2989 RMK A01 T03740182  RH  034%=      5-min Rain = 0
KJTS 182000Z 20014KT 38/18 A2989 RMK A01 T03750176  RH  033%=      5-min Rain = 0
KJTS 182005Z 20009G15KT 37/18 A2988 RMK A01 T03740178  RH  033%=      5-min Rain = 0
KJTS 182010Z 18013G19KT 38/18 A2988 RMK A01 T03770184  RH  034%=      5-min Rain = 0
KJTS 182015Z 17010G18KT 38/19 A2988 RMK A01 T03750187  RH  035%=      5-min Rain = 0
KJTS 182020Z 16014G19KT 37/19 A2988 RMK A01 T03710188  RH  036%=      5-min Rain = 0
KJTS 182025Z 17011G17KT 38/19 A2988 RMK A01 T03780191  RH  036%=      5-min Rain = 0
KJTS 182030Z 18011G18KT 38/19 A2987 RMK A01 T03760187  RH  035%=      5-min Rain = 0
KJTS 182035Z 17017KT 37/19 A2987 RMK A01 T03720186  RH  036%=      5-min Rain = 0
KJTS 182040Z 17013G20KT 38/19 A2987 RMK A01 T03750185  RH  035%=      5-min Rain = 0
KJTS 182045Z 18014G22KT 37/19 A2987 RMK A01 T03740185  RH  035%=      5-min Rain = 0
KJTS 182050Z 17014G21KT 38/18 A2987 RMK A01 T03760180  RH  033%=      5-min Rain = 0
KJTS 182055Z 18014G20KT 38/18 A2987 RMK A01 T03780182  RH  034%=      5-min Rain = 0
KJTS 182100Z 17013G18KT 38/18 A2987 RMK A01 T03760181  RH  034%=      5-min Rain = 0
KJTS 182105Z 16014G19KT 38/18 A2987 RMK A01 T03770182  RH  034%=      5-min Rain = 0
KJTS 182110Z 18013G19KT 38/19 A2986 RMK A01 T03810185  RH  034%=      5-min Rain = 0
KJTS 182115Z 16013G21KT 38/19 A2986 RMK A01 T03810185  RH  034%=      5-min Rain = 0
KJTS 182120Z 17010G18KT 38/19 A2986 RMK A01 T03800185  RH  034%=      5-min Rain = 0
KJTS 182125Z 18013G19KT 38/18 A2986 RMK A01 T03840181  RH  032%=      5-min Rain = 0
KJTS 182130Z 16014G20KT 38/18 A2986 RMK A01 T03780182  RH  034%=      5-min Rain = 0
KJTS 182135Z 16012G17KT 38/18 A2985 RMK A01 T03790180  RH  033%=      5-min Rain = 0
KJTS 182140Z 18015G21KT 38/18 A2985 RMK A01 T03800176  RH  032%=      5-min Rain = 0
KJTS 182145Z 18013G18KT 38/17 A2985 RMK A01 T03770173  RH  032%=      5-min Rain = 0
KJTS 182150Z 16013G19KT 38/18 A2985 RMK A01 T03790177  RH  032%=      5-min Rain = 0
KJTS 182155Z 17012G19KT 38/18 A2985 RMK A01 T03800180  RH  033%=      5-min Rain = 0
KJTS 182200Z 17011G19KT 38/18 A2985 RMK A01 T03790182  RH  033%=      5-min Rain = 0
KJTS 182205Z 17013G22KT 38/18 A2985 RMK A01 T03800179  RH  033%=      5-min Rain = 0
KJTS 182210Z 17014G20KT 38/17 A2985 RMK A01 T03810173  RH  031%=      5-min Rain = 0
KJTS 182215Z 16013G19KT 38/17 A2984 RMK A01 T03800173  RH  031%=      5-min Rain = 0
KJTS 182220Z 16011G18KT 38/18 A2984 RMK A01 T03790177  RH  032%=      5-min Rain = 0
KJTS 182225Z 18011G17KT 38/18 A2984 RMK A01 T03810175  RH  031%=      5-min Rain = 0
KJTS 182230Z 18012G19KT 38/17 A2984 RMK A01 T03810174  RH  031%=      5-min Rain = 0
KJTS 182235Z 18013G18KT 38/18 A2984 RMK A01 T03780176  RH  032%=      5-min Rain = 0
KJTS 182240Z 18011G19KT 38/18 A2984 RMK A01 T03810180  RH  032%=      5-min Rain = 0
KJTS 182245Z 17013G23KT 38/18 A2983 RMK A01 T03790178  RH  032%=      5-min Rain = 0
KJTS 182250Z 18012G17KT 38/17 A2983 RMK A01 T03780173  RH  032%=      5-min Rain = 0
KJTS 182255Z 18012KT 38/17 A2983 RMK A01 T03790174  RH  032%=      5-min Rain = 0
KJTS 182300Z 16014KT 38/17 A2983 RMK A01 T03770174  RH  032%=      5-min Rain = 0
KJTS 182305Z 16012G18KT 38/17 A2983 RMK A01 T03760174  RH  032%=      5-min Rain = 0
KJTS 182310Z 18012G19KT 38/18 A2982 RMK A01 T03780177  RH  032%=      5-min Rain = 0
KJTS 182315Z 17014G21KT 38/17 A2982 RMK A01 T03750174  RH  032%=      5-min Rain = 0
KJTS 182320Z 16013G20KT 37/17 A2982 RMK A01 T03740173  RH  032%=      5-min Rain = 0
KJTS 182325Z 16014G20KT 37/17 A2982 RMK A01 T03720174  RH  033%=      5-min Rain = 0
KJTS 182330Z 16012G17KT 37/18 A2982 RMK A01 T03730176  RH  033%=      5-min Rain = 0
KJTS 182335Z 16012G19KT 37/18 A2982 RMK A01 T03720177  RH  033%=      5-min Rain = 0
KJTS 182340Z 17013G20KT 37/17 A2982 RMK A01 T03710174  RH  033%=      5-min Rain = 0
KJTS 182345Z 16012G18KT 37/18 A2981 RMK A01 T03710177  RH  034%=      5-min Rain = 0
KJTS 182350Z 16014G20KT 37/18 A2981 RMK A01 T03670176  RH  034%=      5-min Rain = 0
KJTS 182355Z 15016G22KT 37/18 A2981 RMK A01 T03660176  RH  035%=      5-min Rain = 0
KJTS 190000Z 16014G20KT 37/18 A2981 RMK A01 T03660175  RH  034%=      5-min Rain = 0
KJTS 190005Z 16014G20KT 37/18 A2981 RMK A01 T03650176  RH  035%=      5-min Rain = 0
KJTS 190010Z 15014G21KT 36/18 A2981 RMK A01 T03630178  RH  036%=      5-min Rain = 0
KJTS 190015Z 15014G22KT 36/18 A2981 RMK A01 T03610177  RH  036%=      5-min Rain = 0
KJTS 190020Z 15015G20KT 36/18 A2981 RMK A01 T03600177  RH  036%=      5-min Rain = 0
KJTS 190025Z 15014G19KT 36/18 A2982 RMK A01 T03590176  RH  036%=      5-min Rain = 0
KJTS 190030Z 15015G20KT 36/18 A2982 RMK A01 T03570176  RH  036%=      5-min Rain = 0
KJTS 190035Z 15015G22KT 36/18 A2982 RMK A01 T03560176  RH  036%=      5-min Rain = 0
KJTS 190040Z 15013G19KT 36/18 A2982 RMK A01 T03550177  RH  037%=      5-min Rain = 0
KJTS 190045Z 15013G18KT 35/18 A2982 RMK A01 T03540176  RH  037%=      5-min Rain = 0
KJTS 190050Z 15014KT 35/18 A2982 RMK A01 T03520176  RH  037%=      5-min Rain = 0
KJTS 190055Z 15013G19KT 35/18 A2982 RMK A01 T03510176  RH  037%=      5-min Rain = 0
KJTS 190100Z 15014G20KT 35/18 A2982 RMK A01 T03500176  RH  038%=      5-min Rain = 0
KJTS 190105Z 15013G20KT 35/18 A2982 RMK A01 T03490176  RH  038%=      5-min Rain = 0
KJTS 190110Z 16013KT 35/18 A2982 RMK A01 T03470175  RH  038%=      5-min Rain = 0
KJTS 190115Z 15011KT 35/18 A2982 RMK A01 T03450175  RH  038%=      5-min Rain = 0
KJTS 190120Z 15011G17KT 34/18 A2982 RMK A01 T03430176  RH  039%=      5-min Rain = 0
KJTS 190125Z 15013G19KT 34/17 A2982 RMK A01 T03420174  RH  039%=      5-min Rain = 0
KJTS 190130Z 16011G17KT 34/17 A2982 RMK A01 T03410174  RH  039%=      5-min Rain = 0
KJTS 190135Z 15012KT 34/17 A2983 RMK A01 T03390173  RH  039%=      5-min Rain = 0
KJTS 190140Z 15011G16KT 34/17 A2983 RMK A01 T03380172  RH  039%=      5-min Rain = 0
KJTS 190145Z 16011KT 34/17 A2983 RMK A01 T03360172  RH  040%=      5-min Rain = 0
KJTS 190150Z 16011G16KT 33/17 A2983 RMK A01 T03340171  RH  040%=      5-min Rain = 0
KJTS 190155Z 15011G16KT 33/17 A2983 RMK A01 T03330170  RH  040%=      5-min Rain = 0
KJTS 190200Z 16011KT 33/17 A2983 RMK A01 T03320169  RH  040%=      5-min Rain = 0
KJTS 190205Z 16009KT 33/17 A2983 RMK A01 T03300168  RH  040%=      5-min Rain = 0
KJTS 190210Z 16009KT 33/17 A2984 RMK A01 T03280168  RH  040%=      5-min Rain = 0
KJTS 190215Z 15010KT 33/17 A2984 RMK A01 T03260168  RH  041%=      5-min Rain = 0
KJTS 190220Z 16009KT 32/17 A2984 RMK A01 T03240168  RH  041%=      5-min Rain = 0
KJTS 190225Z 16009G14KT 32/17 A2984 RMK A01 T03230169  RH  042%=      5-min Rain = 0
KJTS 190230Z 15010KT 32/17 A2984 RMK A01 T03230170  RH  042%=      5-min Rain = 0
KJTS 190235Z 16009KT 32/17 A2984 RMK A01 T03220171  RH  043%=      5-min Rain = 0
KJTS 190240Z 16009KT 32/17 A2984 RMK A01 T03200172  RH  043%=      5-min Rain = 0
KJTS 190245Z 15008KT 32/17 A2984 RMK A01 T03180173  RH  044%=      5-min Rain = 0
KJTS 190250Z 15010KT 32/17 A2985 RMK A01 T03180173  RH  044%=      5-min Rain = 0
KJTS 190255Z 16010KT 32/17 A2985 RMK A01 T03170174  RH  045%=      5-min Rain = 0
KJTS 190300Z 16010KT 32/18 A2985 RMK A01 T03170175  RH  045%=      5-min Rain = 0
KJTS 190305Z 16011KT 32/18 A2985 RMK A01 T03160176  RH  045%=      5-min Rain = 0
KJTS 190310Z 15010KT 32/18 A2985 RMK A01 T03160177  RH  046%=      5-min Rain = 0
KJTS 190315Z 15010KT 32/18 A2985 RMK A01 T03150177  RH  046%=      5-min Rain = 0
KJTS 190320Z 16010KT 31/18 A2985 RMK A01 T03140178  RH  047%=      5-min Rain = 0
KJTS 190325Z 15009G15KT 31/18 A2986 RMK A01 T03120178  RH  047%=      5-min Rain = 0
KJTS 190330Z 15009KT 31/18 A2986 RMK A01 T03110178  RH  047%=      5-min Rain = 0
KJTS 190335Z 15010KT 31/18 A2986 RMK A01 T03100178  RH  048%=      5-min Rain = 0
KJTS 190340Z 15010KT 31/18 A2986 RMK A01 T03090178  RH  048%=      5-min Rain = 0
KJTS 190345Z 16011KT 31/18 A2987 RMK A01 T03090177  RH  048%=      5-min Rain = 0
KJTS 190350Z 16010KT 31/18 A2987 RMK A01 T03090177  RH  048%=      5-min Rain = 0
KJTS 190355Z 15010KT 31/18 A2987 RMK A01 T03080177  RH  048%=      5-min Rain = 0
KJTS 190400Z 16011KT 31/18 A2987 RMK A01 T03070176  RH  048%=      5-min Rain = 0
KJTS 190405Z 16011G16KT 31/18 A2987 RMK A01 T03070175  RH  047%=      5-min Rain = 0
KJTS 190410Z 16011G18KT 31/17 A2987 RMK A01 T03070174  RH  047%=      5-min Rain = 0
KJTS 190415Z 16011G16KT 31/17 A2987 RMK A01 T03070174  RH  047%=      5-min Rain = 0
KJTS 190420Z 16010KT 31/17 A2987 RMK A01 T03050173  RH  048%=      5-min Rain = 0
KJTS 190425Z 16010KT 30/17 A2987 RMK A01 T03030172  RH  048%=      5-min Rain = 0
KJTS 190430Z 16011KT 30/17 A2987 RMK A01 T03030170  RH  047%=      5-min Rain = 0
KJTS 190435Z 16011G16KT 30/17 A2987 RMK A01 T03030169  RH  047%=      5-min Rain = 0
KJTS 190440Z 16011KT 30/17 A2988 RMK A01 T03040166  RH  046%=      5-min Rain = 0
KJTS 190445Z 16011G16KT 30/16 A2988 RMK A01 T03040164  RH  045%=      5-min Rain = 0
KJTS 190450Z 16010KT 30/16 A2988 RMK A01 T03030162  RH  045%=      5-min Rain = 0
KJTS 190455Z 16011KT 30/16 A2988 RMK A01 T03040160  RH  044%=      5-min Rain = 0

Page generated in 0.0163 seconds.